Terminal Aerodrome Forecast
Issued by NWS

Home | Current Version | Previous Version | Text Only | Print | Product List | Glossary On
Versions: 1 2 3 4 5 6 7 8 9 10 11 12 13 14 15
600
FTUS43 KJKL 161138
TAFSME
TAF
KSME 161138Z 1612/1712 33007KT 4SM -SN BR SCT006 OVC015
     FM162000 31007KT 4SM -SHSN BR SCT015 OVC025
     FM162300 31007KT 6SM -SHSN BR BKN035
     FM170800 VRB03KT 6SM -SHSN BKN015=

USA.gov is the U.S. government's official web portal to all federal, state and local government web resources and services.